createdAt,value
2019-03-31T00:00:37.184Z,2.70
2019-03-31T00:03:05.928Z,2.40
2019-03-31T00:05:37.647Z,2.57
2019-03-31T00:08:06.105Z,2.97
2019-03-31T00:10:35.253Z,2.87
2019-03-31T00:13:04.420Z,3.13
2019-03-31T00:15:33.556Z,3.27
2019-03-31T00:18:02.507Z,3.13
2019-03-31T00:20:31.707Z,2.90
2019-03-31T00:23:00.415Z,2.77
2019-03-31T00:25:29.703Z,2.57
2019-03-31T00:27:58.382Z,2.90
2019-03-31T00:30:27.226Z,3.27
2019-03-31T00:32:57.095Z,3.13
2019-03-31T00:35:26.575Z,3.57
2019-03-31T00:37:55.584Z,2.60
2019-03-31T00:40:24.908Z,3.20
2019-03-31T00:42:53.535Z,3.13
2019-03-31T00:45:22.553Z,2.63
2019-03-31T00:47:51.378Z,2.90
2019-03-31T00:50:20.683Z,2.90
2019-03-31T00:52:49.519Z,3.10
2019-03-31T00:55:18.088Z,2.67
2019-03-31T00:57:47.215Z,2.60
2019-03-31T01:00:38.234Z,2.57
2019-03-31T01:03:07.979Z,2.77
2019-03-31T01:05:38.743Z,2.73
2019-03-31T01:08:07.363Z,3.33
2019-03-31T01:10:36.256Z,2.63
2019-03-31T01:13:05.678Z,2.33
2019-03-31T01:15:34.787Z,2.83
2019-03-31T01:18:03.979Z,2.73
2019-03-31T01:20:33.150Z,2.80
2019-03-31T01:23:02.151Z,2.50
2019-03-31T01:25:31.243Z,2.70
2019-03-31T01:28:00.381Z,3.17
2019-03-31T01:30:29.116Z,3.23
2019-03-31T01:32:58.531Z,2.93
2019-03-31T01:35:26.990Z,2.93
2019-03-31T01:37:55.692Z,2.77
2019-03-31T01:40:25.217Z,2.97
2019-03-31T01:42:54.188Z,2.80
2019-03-31T01:45:23.381Z,2.97
2019-03-31T01:47:52.395Z,2.50
2019-03-31T01:50:21.571Z,3.13
2019-03-31T01:52:50.584Z,2.80
2019-03-31T01:55:19.217Z,3.10
2019-03-31T01:57:48.187Z,3.10
2019-03-31T02:00:30.397Z,2.73
2019-03-31T02:02:58.949Z,2.23
2019-03-31T02:05:27.703Z,2.93
2019-03-31T02:07:56.807Z,3.30
2019-03-31T02:10:26.115Z,3.43
2019-03-31T02:12:55.111Z,3.80
2019-03-31T02:15:23.527Z,3.43
2019-03-31T02:17:53.546Z,3.20
2019-03-31T02:20:22.523Z,4.53
2019-03-31T02:22:51.699Z,5.63
2019-03-31T02:25:21.031Z,6.20
2019-03-31T02:27:49.998Z,6.93
2019-03-31T02:30:18.663Z,7.43
2019-03-31T02:32:47.461Z,6.50
2019-03-31T02:35:17.589Z,8.33
2019-03-31T02:37:46.924Z,7.30
2019-03-31T02:40:15.565Z,5.53
2019-03-31T02:42:44.385Z,4.60
2019-03-31T02:45:13.565Z,3.90
2019-03-31T02:47:42.564Z,4.63
2019-03-31T02:50:15.381Z,4.00
2019-03-31T02:52:44.235Z,3.07
2019-03-31T02:55:12.662Z,4.10
2019-03-31T02:57:42.113Z,3.40
2019-03-31T03:00:10.609Z,3.80
2019-03-31T03:02:42.630Z,3.67
2019-03-31T03:05:19.866Z,3.87
2019-03-31T03:07:51.388Z,4.43
2019-03-31T03:10:22.836Z,3.87
2019-03-31T03:12:52.557Z,3.60
2019-03-31T03:15:28.219Z,3.40
2019-03-31T03:17:57.344Z,3.47
2019-03-31T03:20:25.638Z,3.10
2019-03-31T03:22:53.924Z,2.63
2019-03-31T03:25:22.188Z,2.90
2019-03-31T03:27:50.497Z,2.70
2019-03-31T03:30:19.002Z,3.43
2019-03-31T03:33:12.538Z,3.03
2019-03-31T03:35:19.222Z,2.90
2019-03-31T03:37:47.911Z,2.83
2019-03-31T03:40:16.197Z,2.60
2019-03-31T03:42:44.865Z,2.70
2019-03-31T03:45:13.200Z,2.77
2019-03-31T03:47:41.510Z,3.17
2019-03-31T03:50:09.883Z,2.67
2019-03-31T03:52:38.117Z,2.93
2019-03-31T03:55:06.506Z,3.07
2019-03-31T03:57:34.766Z,3.07
2019-03-31T04:00:03.339Z,3.77
2019-03-31T04:02:31.576Z,3.73
2019-03-31T04:04:59.810Z,2.83
2019-03-31T04:07:28.482Z,2.73
2019-03-31T04:09:56.734Z,2.63
2019-03-31T04:12:24.992Z,2.50
2019-03-31T04:14:53.244Z,2.83
2019-03-31T04:17:21.476Z,3.53
2019-03-31T04:19:49.735Z,2.90
2019-03-31T04:22:17.988Z,2.67
2019-03-31T04:24:46.265Z,2.50
2019-03-31T04:27:18.711Z,3.30
2019-03-31T04:29:44.597Z,2.70
2019-03-31T04:32:12.874Z,2.67
2019-03-31T04:34:41.114Z,3.23
2019-03-31T04:37:09.345Z,3.63
2019-03-31T04:39:37.586Z,2.50
2019-03-31T04:42:06.222Z,2.70
2019-03-31T04:44:34.460Z,2.97
2019-03-31T04:47:02.733Z,2.50
2019-03-31T04:49:30.984Z,2.77
2019-03-31T04:51:59.228Z,2.60
2019-03-31T04:54:27.468Z,2.70
2019-03-31T04:56:55.737Z,3.00
2019-03-31T04:59:23.975Z,2.53
2019-03-31T05:01:52.219Z,2.80
2019-03-31T05:04:20.451Z,3.57
2019-03-31T05:06:48.683Z,2.93
2019-03-31T05:09:16.944Z,2.77
2019-03-31T05:11:45.567Z,3.30
2019-03-31T05:14:13.820Z,2.67
2019-03-31T05:16:42.053Z,3.03
2019-03-31T05:19:10.696Z,3.50
2019-03-31T05:21:38.988Z,3.00
2019-03-31T05:24:07.256Z,2.10
2019-03-31T05:26:35.499Z,2.90
2019-03-31T05:29:04.204Z,2.30
2019-03-31T05:31:32.557Z,2.93
2019-03-31T05:34:00.850Z,2.60
2019-03-31T05:36:29.848Z,2.83
2019-03-31T05:38:58.119Z,2.60
2019-03-31T05:41:26.396Z,2.87
2019-03-31T05:44:05.574Z,2.93
2019-03-31T05:46:25.072Z,2.80
2019-03-31T05:48:53.336Z,2.70
2019-03-31T05:51:21.876Z,2.63
2019-03-31T05:53:51.428Z,3.00
2019-03-31T05:56:19.699Z,2.57
2019-03-31T05:58:48.383Z,2.57
2019-03-31T06:01:17.018Z,2.53
2019-03-31T06:03:45.278Z,2.70
2019-03-31T06:06:13.975Z,3.20
2019-03-31T06:08:42.220Z,2.67
2019-03-31T06:11:10.509Z,3.10
2019-03-31T06:13:38.755Z,2.27
2019-03-31T06:16:07.001Z,2.63
2019-03-31T06:18:54.559Z,2.60
2019-03-31T06:21:23.452Z,3.27
2019-03-31T06:23:52.326Z,2.60
2019-03-31T06:26:21.235Z,2.63
2019-03-31T06:28:50.128Z,2.77
2019-03-31T06:31:19.203Z,2.20
2019-03-31T06:33:48.219Z,2.73
2019-03-31T06:36:16.963Z,2.60
2019-03-31T06:38:45.704Z,2.47
2019-03-31T06:41:14.826Z,2.57
2019-03-31T06:43:43.756Z,2.43
2019-03-31T06:46:12.985Z,3.67
2019-03-31T06:48:42.042Z,2.97
2019-03-31T06:51:11.345Z,2.63
2019-03-31T06:53:40.548Z,2.40
2019-03-31T06:56:09.204Z,2.47
2019-03-31T06:58:38.047Z,2.17
2019-03-31T07:01:06.915Z,3.10
2019-03-31T07:03:35.191Z,2.50
2019-03-31T07:06:03.765Z,2.30
2019-03-31T07:08:32.963Z,2.63
2019-03-31T07:11:01.590Z,2.30
2019-03-31T07:13:30.444Z,2.47
2019-03-31T07:15:59.643Z,2.60
2019-03-31T07:18:28.620Z,2.40
2019-03-31T07:20:57.424Z,3.63
2019-03-31T07:23:26.140Z,2.97
2019-03-31T07:25:55.097Z,3.00
2019-03-31T07:28:26.929Z,3.80
2019-03-31T07:30:59.180Z,3.30
2019-03-31T07:33:26.681Z,3.57
2019-03-31T07:35:55.959Z,3.20
2019-03-31T07:38:38.039Z,4.13
2019-03-31T07:40:56.094Z,3.40
2019-03-31T07:43:26.360Z,3.20
2019-03-31T07:45:55.959Z,2.87
2019-03-31T07:48:25.152Z,3.37
2019-03-31T07:50:54.152Z,3.33
2019-03-31T07:53:23.549Z,3.43
2019-03-31T07:55:52.781Z,2.87
2019-03-31T07:58:21.451Z,3.47
2019-03-31T08:00:50.159Z,3.43
2019-03-31T08:03:19.339Z,2.70
2019-03-31T08:05:48.211Z,3.13
2019-03-31T08:08:17.112Z,3.20
2019-03-31T08:10:46.748Z,3.22
2019-03-31T08:13:15.460Z,3.53
2019-03-31T08:15:44.695Z,3.20
2019-03-31T08:18:13.728Z,2.70
2019-03-31T08:20:42.371Z,3.90
2019-03-31T08:23:11.363Z,2.85
2019-03-31T08:25:40.024Z,2.85
2019-03-31T08:28:08.840Z,2.65
2019-03-31T08:30:39.076Z,3.20
2019-03-31T08:33:08.281Z,3.02
2019-03-31T08:35:47.094Z,3.00
2019-03-31T08:38:07.188Z,3.02
2019-03-31T08:40:35.428Z,3.08
2019-03-31T08:43:03.700Z,2.87
2019-03-31T08:45:31.977Z,2.87
2019-03-31T08:48:01.438Z,3.77
2019-03-31T08:50:29.775Z,3.45
2019-03-31T08:52:58.017Z,3.10
2019-03-31T08:55:26.264Z,3.37
2019-03-31T08:57:54.564Z,2.75
2019-03-31T09:00:42.246Z,3.12
2019-03-31T09:03:10.534Z,3.20
2019-03-31T09:05:38.779Z,2.92
2019-03-31T09:08:07.068Z,2.75
2019-03-31T09:10:35.335Z,2.85
2019-03-31T09:13:03.597Z,2.70
2019-03-31T09:15:31.933Z,2.87
2019-03-31T09:18:00.225Z,2.70
2019-03-31T09:20:28.486Z,2.77
2019-03-31T09:22:56.730Z,3.00
2019-03-31T09:25:27.779Z,2.80
2019-03-31T09:27:56.048Z,2.70
2019-03-31T09:30:24.323Z,3.05
2019-03-31T09:32:52.630Z,3.50
2019-03-31T09:35:20.860Z,3.47
2019-03-31T09:37:49.123Z,3.55
2019-03-31T09:40:17.582Z,3.62
2019-03-31T09:42:45.819Z,3.58
2019-03-31T09:45:14.722Z,3.45
2019-03-31T09:47:42.945Z,2.95
2019-03-31T09:50:12.097Z,3.25
2019-03-31T09:52:40.538Z,3.22
2019-03-31T09:55:09.481Z,3.40
2019-03-31T09:57:37.930Z,3.37
2019-03-31T10:00:07.109Z,2.92
2019-03-31T10:02:35.887Z,3.20
2019-03-31T10:05:05.428Z,3.70
2019-03-31T10:07:35.008Z,3.12
2019-03-31T10:10:03.498Z,2.98
2019-03-31T10:12:31.747Z,3.00
2019-03-31T10:14:59.999Z,2.77
2019-03-31T10:17:28.276Z,2.47
2019-03-31T10:19:56.507Z,1.95
2019-03-31T10:22:24.845Z,2.55
2019-03-31T10:24:53.546Z,2.42
2019-03-31T10:27:22.256Z,2.77
2019-03-31T10:29:50.532Z,2.12
2019-03-31T10:32:18.915Z,2.70
2019-03-31T10:34:47.213Z,2.80
2019-03-31T10:37:23.120Z,2.60
2019-03-31T10:39:51.383Z,2.47
2019-03-31T10:42:19.711Z,2.65
2019-03-31T10:44:47.971Z,2.40
2019-03-31T10:47:16.275Z,2.58
2019-03-31T10:49:44.641Z,2.60
2019-03-31T10:52:23.403Z,2.75
2019-03-31T10:54:51.625Z,2.40
2019-03-31T10:57:20.017Z,2.70
2019-03-31T10:59:48.291Z,2.70
2019-03-31T11:02:16.551Z,2.55
2019-03-31T11:04:45.133Z,2.42
2019-03-31T11:07:13.536Z,2.77
2019-03-31T11:09:41.820Z,2.55
2019-03-31T11:12:11.041Z,2.50
2019-03-31T11:14:39.499Z,2.45
2019-03-31T11:17:07.895Z,2.37
2019-03-31T11:19:37.160Z,2.22
2019-03-31T11:22:25.645Z,2.70
2019-03-31T11:24:54.190Z,2.62
2019-03-31T11:27:23.188Z,2.80
2019-03-31T11:29:51.854Z,2.42
2019-03-31T11:32:21.149Z,2.50
2019-03-31T11:34:49.851Z,2.33
2019-03-31T11:37:18.208Z,2.47
2019-03-31T11:39:46.576Z,2.40
2019-03-31T11:42:15.579Z,2.37
2019-03-31T11:44:44.378Z,2.83
2019-03-31T11:47:13.580Z,2.50
2019-03-31T11:49:42.618Z,2.65
2019-03-31T11:52:10.863Z,2.60
2019-03-31T11:54:39.657Z,2.70
2019-03-31T11:57:09.391Z,2.58
2019-03-31T11:59:38.966Z,2.25
2019-03-31T12:02:07.959Z,2.33
2019-03-31T12:04:36.952Z,2.37
2019-03-31T12:07:05.520Z,2.30
2019-03-31T12:09:34.829Z,2.72
2019-03-31T12:12:03.575Z,2.80
2019-03-31T12:14:32.411Z,2.62
2019-03-31T12:17:01.513Z,2.50
2019-03-31T12:19:30.445Z,2.72
2019-03-31T12:22:02.550Z,2.42
2019-03-31T12:24:31.860Z,2.83
2019-03-31T12:27:00.503Z,2.65
2019-03-31T12:29:29.356Z,2.62
2019-03-31T12:31:58.316Z,2.80
2019-03-31T12:34:27.324Z,3.02
2019-03-31T12:36:56.732Z,3.35
2019-03-31T12:39:26.312Z,3.00
2019-03-31T12:41:54.759Z,3.00
2019-03-31T12:44:25.251Z,2.95
2019-03-31T12:46:57.116Z,5.78
2019-03-31T12:49:25.748Z,3.02
2019-03-31T12:51:55.217Z,2.70
2019-03-31T12:54:24.390Z,3.00
2019-03-31T12:56:53.765Z,3.00
2019-03-31T12:59:23.120Z,4.20
2019-03-31T13:01:52.073Z,3.00
2019-03-31T13:04:21.272Z,3.20
2019-03-31T13:06:49.954Z,2.55
2019-03-31T13:09:19.319Z,3.37
2019-03-31T13:11:50.399Z,3.20
2019-03-31T13:14:18.391Z,3.42
2019-03-31T13:16:47.281Z,3.08
2019-03-31T13:19:16.472Z,3.15
2019-03-31T13:21:45.659Z,3.17
2019-03-31T13:24:14.840Z,3.47
2019-03-31T13:26:43.848Z,3.25
2019-03-31T13:29:13.058Z,3.47
2019-03-31T13:31:42.408Z,3.72
2019-03-31T13:34:12.508Z,3.40
2019-03-31T13:36:41.620Z,3.37
2019-03-31T13:39:10.860Z,2.92
2019-03-31T13:41:40.160Z,2.47
2019-03-31T13:44:08.801Z,2.60
2019-03-31T13:46:37.527Z,2.37
2019-03-31T13:49:06.857Z,2.47
2019-03-31T13:51:35.739Z,1.85
2019-03-31T13:54:04.379Z,2.52
2019-03-31T13:56:33.809Z,2.75
2019-03-31T13:59:03.123Z,2.52
2019-03-31T14:01:32.445Z,3.40
2019-03-31T14:04:03.492Z,2.37
2019-03-31T14:06:31.742Z,2.62
2019-03-31T14:09:02.075Z,2.45
2019-03-31T14:11:31.201Z,2.08
2019-03-31T14:13:59.836Z,2.83
2019-03-31T14:16:29.388Z,2.92
2019-03-31T14:18:58.439Z,2.87
2019-03-31T14:21:27.757Z,2.25
2019-03-31T14:23:57.049Z,3.33
2019-03-31T14:26:26.157Z,2.08
2019-03-31T14:28:54.857Z,2.98
2019-03-31T14:31:24.024Z,2.33
2019-03-31T14:33:52.442Z,3.35
2019-03-31T14:36:21.500Z,2.75
2019-03-31T14:38:50.710Z,3.12
2019-03-31T14:41:19.708Z,2.85
2019-03-31T14:43:48.363Z,2.20
2019-03-31T14:46:19.632Z,1.75
2019-03-31T14:48:47.892Z,2.40
2019-03-31T14:51:16.570Z,2.30
2019-03-31T14:53:45.303Z,2.17
2019-03-31T14:56:14.604Z,2.08
2019-03-31T14:58:43.875Z,2.67
2019-03-31T15:01:15.168Z,2.55
2019-03-31T15:03:44.336Z,2.42
2019-03-31T15:06:16.911Z,2.77
2019-03-31T15:08:54.332Z,2.83
2019-03-31T15:11:15.651Z,1.75
2019-03-31T15:13:44.700Z,1.72
2019-03-31T15:16:14.021Z,2.20
2019-03-31T15:18:42.639Z,3.00
2019-03-31T15:21:11.736Z,2.40
2019-03-31T15:23:40.562Z,2.92
2019-03-31T15:26:09.345Z,3.12
2019-03-31T15:28:38.010Z,2.92
2019-03-31T15:31:06.740Z,2.30
2019-03-31T15:33:35.406Z,2.87
2019-03-31T15:36:04.088Z,3.33
2019-03-31T15:38:32.736Z,2.33
2019-03-31T15:41:01.080Z,2.75
2019-03-31T15:43:29.851Z,1.90
2019-03-31T15:45:58.828Z,2.92
2019-03-31T15:48:27.819Z,2.22
2019-03-31T15:50:57.515Z,2.75
2019-03-31T15:53:26.435Z,3.25
2019-03-31T15:55:55.169Z,2.33
2019-03-31T15:58:25.967Z,3.27
2019-03-31T16:00:54.339Z,3.02
2019-03-31T16:03:23.631Z,3.22
2019-03-31T16:05:52.346Z,2.52
2019-03-31T16:08:20.447Z,3.37
2019-03-31T16:10:48.494Z,3.08
2019-03-31T16:13:16.840Z,2.92
2019-03-31T16:15:44.758Z,2.23
2019-03-31T16:18:12.808Z,2.85
2019-03-31T16:20:41.151Z,2.70
2019-03-31T16:23:09.372Z,3.33
2019-03-31T16:25:39.899Z,2.65
2019-03-31T16:28:07.831Z,2.60
2019-03-31T16:30:36.899Z,2.60
2019-03-31T16:33:07.046Z,2.83
2019-03-31T16:35:35.026Z,3.10
2019-03-31T16:38:03.538Z,2.77
2019-03-31T16:40:31.789Z,2.37
2019-03-31T16:43:00.202Z,3.00
2019-03-31T16:45:28.323Z,2.33
2019-03-31T16:47:56.299Z,2.72
2019-03-31T16:50:24.175Z,2.65
2019-03-31T16:52:52.861Z,2.43
2019-03-31T16:55:21.067Z,2.57
2019-03-31T16:58:01.832Z,2.72
2019-03-31T17:00:29.987Z,2.75
2019-03-31T17:02:58.328Z,2.60
2019-03-31T17:05:26.767Z,2.72
2019-03-31T17:07:54.594Z,2.50
2019-03-31T17:10:22.781Z,2.92
2019-03-31T17:12:50.772Z,2.15
2019-03-31T17:15:18.795Z,2.80
2019-03-31T17:17:46.883Z,2.50
2019-03-31T17:20:15.048Z,2.60
2019-03-31T17:22:43.123Z,4.73
2019-03-31T17:25:11.411Z,2.90
2019-03-31T17:27:39.165Z,2.80
2019-03-31T17:30:07.919Z,3.00
2019-03-31T17:32:37.824Z,3.40
2019-03-31T17:35:06.160Z,3.58
2019-03-31T17:37:34.520Z,3.20
2019-03-31T17:40:06.331Z,3.70
2019-03-31T17:42:33.732Z,3.20
2019-03-31T17:45:02.075Z,3.25
2019-03-31T17:47:30.526Z,3.90
2019-03-31T17:49:58.563Z,3.20
2019-03-31T17:52:26.617Z,4.47
2019-03-31T17:54:57.475Z,3.90
2019-03-31T17:57:26.001Z,4.13
2019-03-31T17:59:53.959Z,4.62
2019-03-31T18:02:22.303Z,5.37
2019-03-31T18:04:50.534Z,5.15
2019-03-31T18:07:18.744Z,4.50
2019-03-31T18:09:47.027Z,4.97
2019-03-31T18:12:14.838Z,4.10
2019-03-31T18:14:42.674Z,4.83
2019-03-31T18:17:10.766Z,4.80
2019-03-31T18:19:38.824Z,4.77
2019-03-31T18:22:20.281Z,4.30
2019-03-31T18:24:48.008Z,4.10
2019-03-31T18:27:16.290Z,4.90
2019-03-31T18:29:44.314Z,4.63
2019-03-31T18:32:12.391Z,4.20
2019-03-31T18:34:40.586Z,3.97
2019-03-31T18:37:08.887Z,4.50
2019-03-31T18:39:37.850Z,3.40
2019-03-31T18:42:05.804Z,4.30
2019-03-31T18:44:34.611Z,4.80
2019-03-31T18:47:02.732Z,4.70
2019-03-31T18:49:30.513Z,4.70
2019-03-31T18:51:58.759Z,4.33
2019-03-31T18:54:49.105Z,5.63
2019-03-31T18:57:46.053Z,4.57
2019-03-31T19:00:33.021Z,4.60
2019-03-31T19:03:20.566Z,4.50
2019-03-31T19:06:01.447Z,4.37
2019-03-31T19:08:48.428Z,4.90
2019-03-31T19:11:48.002Z,4.00
2019-03-31T19:14:38.501Z,4.67
2019-03-31T19:17:32.300Z,4.30
2019-03-31T19:20:10.782Z,4.73
2019-03-31T19:23:04.026Z,4.97
2019-03-31T19:25:49.943Z,4.23
2019-03-31T19:28:26.456Z,4.40
2019-03-31T19:31:14.111Z,4.30
2019-03-31T19:34:04.990Z,4.70
2019-03-31T19:36:55.752Z,4.50
2019-03-31T19:39:49.045Z,3.97
2019-03-31T19:42:46.007Z,4.90
2019-03-31T19:45:36.160Z,4.60
2019-03-31T19:48:39.247Z,4.53
2019-03-31T19:51:30.053Z,5.13
2019-03-31T19:54:21.361Z,4.53
2019-03-31T19:57:18.126Z,5.00
2019-03-31T20:00:18.079Z,5.13
2019-03-31T20:03:12.835Z,4.63
2019-03-31T20:06:06.413Z,3.93
2019-03-31T20:08:39.968Z,4.03
2019-03-31T20:11:45.804Z,4.83
2019-03-31T20:14:36.457Z,3.70
2019-03-31T20:17:14.934Z,4.07
2019-03-31T20:20:11.144Z,4.50
2019-03-31T20:23:16.704Z,5.00
2019-03-31T20:26:10.149Z,4.47
2019-03-31T20:28:52.040Z,4.80
2019-03-31T20:31:45.157Z,4.83
2019-03-31T20:34:31.184Z,4.67
2019-03-31T20:37:18.812Z,5.03
2019-03-31T20:40:06.673Z,5.10
2019-03-31T20:42:54.468Z,5.43
2019-03-31T20:45:22.454Z,5.33
2019-03-31T20:47:50.564Z,6.90
2019-03-31T20:50:19.055Z,6.50
2019-03-31T20:52:47.191Z,7.40
2019-03-31T20:55:16.923Z,5.17
2019-03-31T20:57:45.477Z,5.67
2019-03-31T21:00:14.143Z,5.07
2019-03-31T21:02:42.302Z,4.90
2019-03-31T21:05:10.688Z,4.83
2019-03-31T21:07:39.040Z,4.50
2019-03-31T21:10:07.046Z,5.40
2019-03-31T21:12:35.503Z,5.20
2019-03-31T21:15:04.093Z,5.53
2019-03-31T21:17:32.513Z,4.73
2019-03-31T21:20:00.858Z,4.60
2019-03-31T21:22:29.222Z,4.83
2019-03-31T21:24:57.599Z,5.30
2019-03-31T21:27:26.584Z,5.33
2019-03-31T21:29:54.663Z,5.10
2019-03-31T21:32:22.719Z,4.70
2019-03-31T21:34:50.811Z,5.10
2019-03-31T21:37:19.002Z,5.10
2019-03-31T21:39:46.945Z,5.30
2019-03-31T21:42:15.660Z,5.00
2019-03-31T21:44:44.345Z,5.53
2019-03-31T21:47:12.503Z,5.13
2019-03-31T21:49:40.510Z,5.10
2019-03-31T21:52:09.136Z,5.63
2019-03-31T21:54:37.552Z,5.30
2019-03-31T21:57:05.601Z,5.33
2019-03-31T21:59:33.788Z,5.23
2019-03-31T22:02:02.175Z,4.73
2019-03-31T22:04:30.726Z,6.23
2019-03-31T22:06:59.138Z,6.87
2019-03-31T22:09:27.183Z,5.60
2019-03-31T22:11:55.873Z,4.53
2019-03-31T22:14:24.055Z,5.23
2019-03-31T22:16:52.002Z,5.20
2019-03-31T22:19:20.736Z,5.00
2019-03-31T22:21:48.767Z,5.63
2019-03-31T22:24:16.994Z,5.10
2019-03-31T22:26:44.978Z,5.13
2019-03-31T22:29:13.089Z,5.47
2019-03-31T22:31:41.188Z,4.60
2019-03-31T22:34:09.149Z,4.80
2019-03-31T22:36:37.297Z,4.33
2019-03-31T22:39:06.808Z,5.10
2019-03-31T22:41:35.207Z,4.73
2019-03-31T22:44:03.546Z,5.27
2019-03-31T22:46:31.631Z,4.67
2019-03-31T22:48:59.797Z,5.17
2019-03-31T22:51:28.096Z,5.47
2019-03-31T22:53:56.144Z,6.17
2019-03-31T22:56:24.374Z,4.80
2019-03-31T22:58:52.311Z,5.83
2019-03-31T23:01:20.720Z,5.27
2019-03-31T23:03:48.890Z,5.60
2019-03-31T23:06:16.844Z,5.33
2019-03-31T23:08:45.219Z,5.83
2019-03-31T23:11:13.379Z,5.40
2019-03-31T23:13:41.636Z,5.57
2019-03-31T23:16:09.756Z,5.33
2019-03-31T23:18:38.117Z,6.03
2019-03-31T23:21:06.227Z,4.73
2019-03-31T23:23:34.854Z,5.27
2019-03-31T23:26:02.947Z,5.73
2019-03-31T23:28:31.033Z,4.67
2019-03-31T23:30:59.395Z,4.80
2019-03-31T23:33:27.484Z,5.47
2019-03-31T23:35:56.769Z,5.63
2019-03-31T23:38:24.705Z,5.93
2019-03-31T23:40:52.924Z,6.27
2019-03-31T23:43:24.024Z,7.37
2019-03-31T23:45:52.215Z,7.00
2019-03-31T23:48:20.191Z,7.10
2019-03-31T23:50:48.539Z,5.73
2019-03-31T23:53:16.943Z,6.83
2019-03-31T23:55:44.996Z,5.37
2019-03-31T23:58:13.715Z,6.13
